createdAt,value
2023-02-18T00:00:26.359Z,96762.00
2023-02-18T00:01:25.400Z,96758.00
2023-02-18T00:02:25.382Z,96758.00
2023-02-18T00:03:26.414Z,96758.00
2023-02-18T00:04:26.341Z,96758.00
2023-02-18T00:05:26.356Z,96758.00
2023-02-18T00:06:26.374Z,96752.00
2023-02-18T00:07:26.347Z,96750.00
2023-02-18T00:08:26.353Z,96750.00
2023-02-18T00:09:26.340Z,96754.00
2023-02-18T00:10:26.341Z,96756.00
2023-02-18T00:11:26.341Z,96754.00
2023-02-18T00:12:26.358Z,96754.00
2023-02-18T00:13:26.370Z,96756.00
2023-02-18T00:14:25.329Z,96754.00
2023-02-18T00:15:25.330Z,96752.00
2023-02-18T00:16:26.340Z,96750.00
2023-02-18T00:17:26.397Z,96754.00
2023-02-18T00:18:26.369Z,96756.00
2023-02-18T00:19:25.362Z,96752.00
2023-02-18T00:20:26.371Z,96750.00
2023-02-18T00:21:26.357Z,96752.00
2023-02-18T00:22:25.350Z,96748.00
2023-02-18T00:23:26.365Z,96754.00
2023-02-18T00:24:25.385Z,96750.00
2023-02-18T00:25:26.429Z,96746.00
2023-02-18T00:26:26.442Z,96750.00
2023-02-18T00:27:25.462Z,96752.00
2023-02-18T00:28:26.482Z,96754.00
2023-02-18T00:29:26.525Z,96752.00
2023-02-18T00:30:25.556Z,96752.00
2023-02-18T00:31:26.622Z,96750.00
2023-02-18T00:32:26.512Z,96750.00
2023-02-18T00:33:25.541Z,96752.00
2023-02-18T00:34:26.572Z,96750.00
2023-02-18T00:35:26.563Z,96750.00
2023-02-18T00:36:25.591Z,96752.00
2023-02-18T00:37:26.593Z,96756.00
2023-02-18T00:38:26.613Z,96758.00
2023-02-18T00:39:26.624Z,96758.00
2023-02-18T00:40:26.664Z,96756.00
2023-02-18T00:41:26.693Z,96756.00
2023-02-18T00:42:26.727Z,96756.00
2023-02-18T00:43:26.768Z,96756.00
2023-02-18T00:44:25.802Z,96760.00
2023-02-18T00:45:26.871Z,96762.00
2023-02-18T00:46:25.911Z,96762.00
2023-02-18T00:47:26.899Z,96764.00
2023-02-18T00:48:25.919Z,96770.00
2023-02-18T00:49:26.998Z,96768.00
2023-02-18T00:50:27.036Z,96764.00
2023-02-18T00:51:26.090Z,96760.00
2023-02-18T00:52:27.153Z,96764.00
2023-02-18T00:53:27.216Z,96770.00
2023-02-18T00:54:26.270Z,96770.00
2023-02-18T00:55:26.333Z,96766.00
2023-02-18T00:56:27.385Z,96766.00
2023-02-18T00:57:27.449Z,96766.00
2023-02-18T00:58:26.482Z,96764.00
2023-02-18T00:59:26.544Z,96758.00
2023-02-18T01:00:27.575Z,96756.00
2023-02-18T01:01:26.693Z,96752.00
2023-02-18T01:02:26.709Z,96752.00
2023-02-18T01:03:26.768Z,96756.00
2023-02-18T01:04:27.871Z,96758.00
2023-02-18T01:05:26.873Z,96754.00
2023-02-18T01:06:27.942Z,96750.00
2023-02-18T01:07:28.000Z,96746.00
2023-02-18T01:08:28.061Z,96750.00
2023-02-18T01:09:27.135Z,96750.00
2023-02-18T01:10:28.181Z,96750.00
2023-02-18T01:11:28.248Z,96748.00
2023-02-18T01:12:27.308Z,96750.00
2023-02-18T01:13:28.378Z,96746.00
2023-02-18T01:14:28.428Z,96750.00
2023-02-18T01:15:27.486Z,96748.00
2023-02-18T01:16:27.604Z,96746.00
2023-02-18T01:17:28.633Z,96744.00
2023-02-18T01:18:27.665Z,96748.00
2023-02-18T01:19:28.736Z,96750.00
2023-02-18T01:20:27.793Z,96752.00
2023-02-18T01:21:27.859Z,96748.00
2023-02-18T01:22:28.910Z,96748.00
2023-02-18T01:23:28.970Z,96748.00
2023-02-18T01:24:29.021Z,96744.00
2023-02-18T01:25:29.072Z,96744.00
2023-02-18T01:26:29.143Z,96746.00
2023-02-18T01:27:29.224Z,96746.00
2023-02-18T01:28:29.258Z,96746.00
2023-02-18T01:29:29.314Z,96746.00
2023-02-18T01:30:29.437Z,96744.00
2023-02-18T01:31:29.559Z,96742.00
2023-02-18T01:32:28.502Z,96742.00
2023-02-18T01:33:29.563Z,96742.00
2023-02-18T01:34:28.611Z,96742.00
2023-02-18T01:35:29.671Z,96742.00
2023-02-18T01:36:28.726Z,96738.00
2023-02-18T01:37:29.778Z,96738.00
2023-02-18T01:38:29.841Z,96738.00
2023-02-18T01:39:29.891Z,96738.00
2023-02-18T01:40:28.964Z,96744.00
2023-02-18T01:41:29.012Z,96742.00
2023-02-18T01:42:30.073Z,96742.00
2023-02-18T01:43:30.126Z,96746.00
2023-02-18T01:44:29.185Z,96744.00
2023-02-18T01:45:30.486Z,96742.00
2023-02-18T01:46:30.321Z,96742.00
2023-02-18T01:47:29.355Z,96742.00
2023-02-18T01:48:29.430Z,96740.00
2023-02-18T01:49:30.510Z,96738.00
2023-02-18T01:50:29.540Z,96734.00
2023-02-18T01:51:30.592Z,96734.00
2023-02-18T01:52:30.655Z,96730.00
2023-02-18T01:53:30.724Z,96730.00
2023-02-18T01:54:31.167Z,96729.00
2023-02-18T01:55:30.846Z,96727.00
2023-02-18T01:56:29.902Z,96727.00
2023-02-18T01:57:30.967Z,96729.00
2023-02-18T01:58:31.029Z,96732.00
2023-02-18T01:59:31.083Z,96730.00
2023-02-18T02:00:31.133Z,96732.00
2023-02-18T02:01:31.196Z,96734.00
2023-02-18T02:02:30.249Z,96730.00
2023-02-18T02:03:30.308Z,96730.00
2023-02-18T02:04:31.379Z,96730.00
2023-02-18T02:05:31.874Z,96730.00
2023-02-18T02:06:31.483Z,96729.00
2023-02-18T02:07:31.579Z,96729.00
2023-02-18T02:08:30.599Z,96730.00
2023-02-18T02:09:31.667Z,96732.00
2023-02-18T02:10:30.699Z,96732.00
2023-02-18T02:11:30.762Z,96730.00
2023-02-18T02:12:31.824Z,96730.00
2023-02-18T02:13:31.859Z,96729.00
2023-02-18T02:14:31.922Z,96725.00
2023-02-18T02:15:30.955Z,96723.00
2023-02-18T02:16:32.088Z,96721.00
2023-02-18T02:17:31.055Z,96721.00
2023-02-18T02:18:32.144Z,96721.00
2023-02-18T02:19:31.163Z,96723.00
2023-02-18T02:20:32.209Z,96723.00
2023-02-18T02:21:32.309Z,96723.00
2023-02-18T02:22:31.314Z,96719.00
2023-02-18T02:23:32.390Z,96719.00
2023-02-18T02:24:31.429Z,96719.00
2023-02-18T02:25:31.504Z,96719.00
2023-02-18T02:26:32.547Z,96717.00
2023-02-18T02:27:32.588Z,96719.00
2023-02-18T02:28:31.651Z,96721.00
2023-02-18T02:29:32.709Z,96721.00
2023-02-18T02:30:31.769Z,96719.00
2023-02-18T02:31:31.831Z,96717.00
2023-02-18T02:32:32.888Z,96715.00
2023-02-18T02:33:32.913Z,96713.00
2023-02-18T02:34:32.978Z,96713.00
2023-02-18T02:35:33.321Z,96709.00
2023-02-18T02:36:32.079Z,96709.00
2023-02-18T02:37:33.147Z,96703.00
2023-02-18T02:38:32.172Z,96703.00
2023-02-18T02:39:32.230Z,96701.00
2023-02-18T02:40:32.287Z,96703.00
2023-02-18T02:41:33.330Z,96703.00
2023-02-18T02:42:33.385Z,96699.00
2023-02-18T02:43:32.426Z,96699.00
2023-02-18T02:44:33.471Z,96691.00
2023-02-18T02:45:33.584Z,96687.00
2023-02-18T02:46:32.571Z,96687.00
2023-02-18T02:47:33.627Z,96689.00
2023-02-18T02:48:32.679Z,96689.00
2023-02-18T02:49:33.762Z,96689.00
2023-02-18T02:50:33.799Z,96685.00
2023-02-18T02:51:33.834Z,96687.00
2023-02-18T02:52:33.883Z,96689.00
2023-02-18T02:53:32.956Z,96699.00
2023-02-18T02:54:34.021Z,96699.00
2023-02-18T02:55:34.021Z,96701.00
2023-02-18T02:56:34.067Z,96691.00
2023-02-18T02:57:34.126Z,96689.00
2023-02-18T02:58:33.170Z,96689.00
2023-02-18T02:59:34.212Z,96687.00
2023-02-18T03:00:34.270Z,96687.00
2023-02-18T03:01:34.304Z,96685.00
2023-02-18T03:02:34.364Z,96683.00
2023-02-18T03:03:34.428Z,96681.00
2023-02-18T03:04:34.463Z,96685.00
2023-02-18T03:05:34.517Z,96683.00
2023-02-18T03:06:34.551Z,96683.00
2023-02-18T03:07:34.999Z,96679.00
2023-02-18T03:08:34.658Z,96679.00
2023-02-18T03:09:34.724Z,96681.00
2023-02-18T03:10:34.756Z,96677.00
2023-02-18T03:11:33.842Z,96675.00
2023-02-18T03:12:34.815Z,96677.00
2023-02-18T03:13:33.878Z,96677.00
2023-02-18T03:14:33.916Z,96677.00
2023-02-18T03:15:33.991Z,96677.00
2023-02-18T03:16:35.217Z,96683.00
2023-02-18T03:17:35.076Z,96683.00
2023-02-18T03:18:35.120Z,96683.00
2023-02-18T03:19:34.181Z,96683.00
2023-02-18T03:20:35.229Z,96679.00
2023-02-18T03:21:34.264Z,96677.00
2023-02-18T03:22:34.323Z,96675.00
2023-02-18T03:23:35.372Z,96673.00
2023-02-18T03:24:35.407Z,96673.00
2023-02-18T03:25:34.496Z,96673.00
2023-02-18T03:26:35.506Z,96675.00
2023-02-18T03:27:34.587Z,96681.00
2023-02-18T03:28:34.633Z,96683.00
2023-02-18T03:29:35.648Z,96683.00
2023-02-18T03:30:34.802Z,96685.00
2023-02-18T03:31:35.825Z,96683.00
2023-02-18T03:32:34.789Z,96679.00
2023-02-18T03:33:35.829Z,96675.00
2023-02-18T03:34:34.866Z,96673.00
2023-02-18T03:35:34.934Z,96675.00
2023-02-18T03:36:35.971Z,96679.00
2023-02-18T03:37:35.997Z,96685.00
2023-02-18T03:38:36.040Z,96685.00
2023-02-18T03:39:36.107Z,96687.00
2023-02-18T03:40:35.148Z,96683.00
2023-02-18T03:41:36.200Z,96681.00
2023-02-18T03:42:36.217Z,96683.00
2023-02-18T03:43:36.262Z,96685.00
2023-02-18T03:44:36.337Z,96687.00
2023-02-18T03:45:35.423Z,96689.00
2023-02-18T03:46:35.401Z,96685.00
2023-02-18T03:47:36.442Z,96689.00
2023-02-18T03:48:36.474Z,96683.00
2023-02-18T03:49:36.519Z,96681.00
2023-02-18T03:50:36.577Z,96681.00
2023-02-18T03:51:35.662Z,96685.00
2023-02-18T03:52:36.670Z,96685.00
2023-02-18T03:53:36.698Z,96683.00
2023-02-18T03:54:36.750Z,96685.00
2023-02-18T03:55:35.792Z,96685.00
2023-02-18T03:56:36.841Z,96683.00
2023-02-18T03:57:36.916Z,96679.00
2023-02-18T03:58:36.922Z,96671.00
2023-02-18T03:59:36.970Z,96671.00
2023-02-18T04:00:37.011Z,96668.00
2023-02-18T04:01:36.142Z,96669.00
2023-02-18T04:02:37.081Z,96668.00
2023-02-18T04:03:37.125Z,96668.00
2023-02-18T04:04:37.248Z,96669.00
2023-02-18T04:05:36.209Z,96673.00
2023-02-18T04:06:36.260Z,96671.00
2023-02-18T04:07:37.287Z,96671.00
2023-02-18T04:08:37.336Z,96679.00
2023-02-18T04:09:37.388Z,96685.00
2023-02-18T04:10:37.423Z,96681.00
2023-02-18T04:11:36.470Z,96681.00
2023-02-18T04:12:37.522Z,96683.00
2023-02-18T04:13:37.583Z,96679.00
2023-02-18T04:14:37.601Z,96671.00
2023-02-18T04:15:37.651Z,96675.00
2023-02-18T04:16:37.750Z,96677.00
2023-02-18T04:17:37.747Z,96673.00
2023-02-18T04:18:37.785Z,96671.00
2023-02-18T04:19:37.822Z,96669.00
2023-02-18T04:20:36.877Z,96666.00
2023-02-18T04:21:37.928Z,96664.00
2023-02-18T04:22:37.969Z,96664.00
2023-02-18T04:23:38.015Z,96666.00
2023-02-18T04:24:38.046Z,96671.00
2023-02-18T04:25:37.084Z,96673.00
2023-02-18T04:26:37.120Z,96675.00
2023-02-18T04:27:37.168Z,96671.00
2023-02-18T04:28:38.216Z,96673.00
2023-02-18T04:29:38.301Z,96679.00
2023-02-18T04:30:38.342Z,96681.00
2023-02-18T04:31:37.520Z,96677.00
2023-02-18T04:32:38.385Z,96675.00
2023-02-18T04:33:38.393Z,96683.00
2023-02-18T04:34:37.430Z,96681.00
2023-02-18T04:35:38.984Z,96677.00
2023-02-18T04:36:38.539Z,96668.00
2023-02-18T04:37:38.578Z,96668.00
2023-02-18T04:38:37.622Z,96675.00
2023-02-18T04:39:37.668Z,96675.00
2023-02-18T04:40:38.701Z,96673.00
2023-02-18T04:41:38.756Z,96673.00
2023-02-18T04:42:38.774Z,96677.00
2023-02-18T04:43:38.817Z,96685.00
2023-02-18T04:44:38.858Z,96689.00
2023-02-18T04:45:38.901Z,96689.00
2023-02-18T04:46:38.934Z,96689.00
2023-02-18T04:47:38.957Z,96699.00
2023-02-18T04:48:37.983Z,96691.00
2023-02-18T04:49:38.019Z,96687.00
2023-02-18T04:50:39.060Z,96689.00
2023-02-18T04:51:38.084Z,96685.00
2023-02-18T04:52:39.137Z,96687.00
2023-02-18T04:53:39.167Z,96687.00
2023-02-18T04:54:39.213Z,96689.00
2023-02-18T04:55:39.252Z,96689.00
2023-02-18T04:56:39.274Z,96683.00
2023-02-18T04:57:39.308Z,96683.00
2023-02-18T04:58:39.340Z,96685.00
2023-02-18T04:59:38.375Z,96685.00
2023-02-18T05:00:39.420Z,96685.00
2023-02-18T05:01:39.575Z,96683.00
2023-02-18T05:02:38.481Z,96681.00
2023-02-18T05:03:39.512Z,96683.00
2023-02-18T05:04:39.554Z,96685.00
2023-02-18T05:05:39.575Z,96683.00
2023-02-18T05:06:39.622Z,96679.00
2023-02-18T05:07:39.647Z,96679.00
2023-02-18T05:08:38.694Z,96681.00
2023-02-18T05:09:39.726Z,96683.00
2023-02-18T05:10:38.759Z,96687.00
2023-02-18T05:11:39.796Z,96683.00
2023-02-18T05:12:38.844Z,96675.00
2023-02-18T05:13:39.890Z,96679.00
2023-02-18T05:14:39.905Z,96679.00
2023-02-18T05:15:39.979Z,96675.00
2023-02-18T05:16:39.973Z,96673.00
2023-02-18T05:17:40.040Z,96677.00
2023-02-18T05:18:40.042Z,96675.00
2023-02-18T05:19:39.084Z,96673.00
2023-02-18T05:20:40.110Z,96679.00
2023-02-18T05:21:40.134Z,96683.00
2023-02-18T05:22:39.174Z,96681.00
2023-02-18T05:23:39.223Z,96677.00
2023-02-18T05:24:40.229Z,96677.00
2023-02-18T05:25:40.272Z,96681.00
2023-02-18T05:26:39.291Z,96681.00
2023-02-18T05:27:40.361Z,96679.00
2023-02-18T05:28:39.371Z,96679.00
2023-02-18T05:29:40.405Z,96685.00
2023-02-18T05:30:40.441Z,96685.00
2023-02-18T05:31:40.646Z,96685.00
2023-02-18T05:32:40.507Z,96683.00
2023-02-18T05:33:40.563Z,96681.00
2023-02-18T05:34:40.563Z,96677.00
2023-02-18T05:35:39.629Z,96679.00
2023-02-18T05:36:39.645Z,96683.00
2023-02-18T05:37:40.673Z,96685.00
2023-02-18T05:38:40.703Z,96685.00
2023-02-18T05:39:39.761Z,96683.00
2023-02-18T05:40:40.770Z,96683.00
2023-02-18T05:41:40.817Z,96685.00
2023-02-18T05:42:40.863Z,96691.00
2023-02-18T05:43:39.881Z,96689.00
2023-02-18T05:44:39.919Z,96689.00
2023-02-18T05:45:40.944Z,96687.00
2023-02-18T05:46:41.037Z,96687.00
2023-02-18T05:47:40.987Z,96685.00
2023-02-18T05:48:41.029Z,96683.00
2023-02-18T05:49:41.080Z,96687.00
2023-02-18T05:50:41.088Z,96689.00
2023-02-18T05:51:41.102Z,96689.00
2023-02-18T05:52:41.150Z,96687.00
2023-02-18T05:53:41.185Z,96687.00
2023-02-18T05:54:40.202Z,96689.00
2023-02-18T05:55:41.252Z,96691.00
2023-02-18T05:56:41.281Z,96701.00
2023-02-18T05:57:41.347Z,96701.00
2023-02-18T05:58:40.364Z,96691.00
2023-02-18T05:59:40.382Z,96699.00
2023-02-18T06:00:40.411Z,96691.00
2023-02-18T06:01:41.449Z,96691.00
2023-02-18T06:02:41.526Z,96689.00
2023-02-18T06:03:41.499Z,96689.00
2023-02-18T06:04:41.536Z,96701.00
2023-02-18T06:05:41.592Z,96699.00
2023-02-18T06:06:40.587Z,96701.00
2023-02-18T06:07:40.617Z,96703.00
2023-02-18T06:08:41.679Z,96707.00
2023-02-18T06:09:41.678Z,96709.00
2023-02-18T06:10:41.709Z,96715.00
2023-02-18T06:11:40.756Z,96719.00
2023-02-18T06:12:41.785Z,96715.00
2023-02-18T06:13:41.815Z,96713.00
2023-02-18T06:14:42.139Z,96715.00
2023-02-18T06:15:41.863Z,96715.00
2023-02-18T06:16:41.897Z,96715.00
2023-02-18T06:17:41.919Z,96717.00
2023-02-18T06:18:41.979Z,96715.00
2023-02-18T06:19:40.966Z,96715.00
2023-02-18T06:20:42.003Z,96711.00
2023-02-18T06:21:41.062Z,96711.00
2023-02-18T06:22:41.047Z,96711.00
2023-02-18T06:23:42.098Z,96713.00
2023-02-18T06:24:41.080Z,96715.00
2023-02-18T06:25:41.111Z,96715.00
2023-02-18T06:26:42.132Z,96711.00
2023-02-18T06:27:41.158Z,96713.00
2023-02-18T06:28:42.206Z,96711.00
2023-02-18T06:29:42.235Z,96711.00
2023-02-18T06:30:42.261Z,96711.00
2023-02-18T06:31:42.380Z,96711.00
2023-02-18T06:32:42.310Z,96715.00
2023-02-18T06:33:42.346Z,96717.00
2023-02-18T06:34:42.419Z,96719.00
2023-02-18T06:35:42.449Z,96717.00
2023-02-18T06:36:41.443Z,96719.00
2023-02-18T06:37:42.491Z,96725.00
2023-02-18T06:38:42.499Z,96725.00
2023-02-18T06:39:41.520Z,96723.00
2023-02-18T06:40:41.569Z,96719.00
2023-02-18T06:41:42.582Z,96719.00
2023-02-18T06:42:42.608Z,96719.00
2023-02-18T06:43:42.648Z,96717.00
2023-02-18T06:44:42.659Z,96717.00
2023-02-18T06:45:41.696Z,96715.00
2023-02-18T06:46:42.804Z,96713.00
2023-02-18T06:47:42.762Z,96707.00
2023-02-18T06:48:42.773Z,96705.00
2023-02-18T06:49:41.797Z,96707.00
2023-02-18T06:50:43.142Z,96705.00
2023-02-18T06:51:42.854Z,96707.00
2023-02-18T06:52:42.874Z,96709.00
2023-02-18T06:53:42.923Z,96709.00
2023-02-18T06:54:42.933Z,96713.00
2023-02-18T06:55:42.960Z,96709.00
2023-02-18T06:56:42.977Z,96705.00
2023-02-18T06:57:43.006Z,96707.00
2023-02-18T06:58:43.048Z,96709.00
2023-02-18T06:59:43.045Z,96707.00
2023-02-18T07:00:42.132Z,96709.00
2023-02-18T07:01:42.106Z,96707.00
2023-02-18T07:02:42.123Z,96707.00
2023-02-18T07:03:43.223Z,96711.00
2023-02-18T07:04:43.165Z,96709.00
2023-02-18T07:05:42.189Z,96707.00
2023-02-18T07:06:43.213Z,96703.00
2023-02-18T07:07:43.224Z,96707.00
2023-02-18T07:08:43.305Z,96709.00
2023-02-18T07:09:43.301Z,96711.00
2023-02-18T07:10:43.309Z,96707.00
2023-02-18T07:11:43.319Z,96705.00
2023-02-18T07:12:43.351Z,96705.00
2023-02-18T07:13:42.370Z,96711.00
2023-02-18T07:14:43.450Z,96709.00
2023-02-18T07:15:43.474Z,96707.00
2023-02-18T07:16:43.535Z,96707.00
2023-02-18T07:17:42.462Z,96713.00
2023-02-18T07:18:43.487Z,96711.00
2023-02-18T07:19:43.511Z,96709.00
2023-02-18T07:20:43.522Z,96707.00
2023-02-18T07:21:43.561Z,96701.00
2023-02-18T07:22:43.559Z,96689.00
2023-02-18T07:23:43.616Z,96699.00
2023-02-18T07:24:42.608Z,96703.00
2023-02-18T07:25:42.658Z,96705.00
2023-02-18T07:26:42.641Z,96711.00
2023-02-18T07:27:43.679Z,96709.00
2023-02-18T07:28:43.696Z,96711.00
2023-02-18T07:29:43.714Z,96713.00
2023-02-18T07:30:42.724Z,96713.00
2023-02-18T07:31:43.876Z,96713.00
2023-02-18T07:32:43.771Z,96715.00
2023-02-18T07:33:42.782Z,96717.00
2023-02-18T07:34:43.804Z,96717.00
2023-02-18T07:35:43.827Z,96715.00
2023-02-18T07:36:43.835Z,96715.00
2023-02-18T07:37:43.852Z,96715.00
2023-02-18T07:38:43.899Z,96711.00
2023-02-18T07:39:43.918Z,96709.00
2023-02-18T07:40:42.922Z,96707.00
2023-02-18T07:41:43.955Z,96705.00
2023-02-18T07:42:43.965Z,96711.00
2023-02-18T07:43:43.980Z,96715.00
2023-02-18T07:44:42.974Z,96717.00
2023-02-18T07:45:44.047Z,96717.00
2023-02-18T07:46:43.996Z,96715.00
2023-02-18T07:47:44.013Z,96717.00
2023-02-18T07:48:44.050Z,96717.00
2023-02-18T07:49:44.034Z,96715.00
2023-02-18T07:50:44.052Z,96719.00
2023-02-18T07:51:44.062Z,96721.00
2023-02-18T07:52:44.100Z,96721.00
2023-02-18T07:53:44.126Z,96717.00
2023-02-18T07:54:43.113Z,96717.00
2023-02-18T07:55:43.125Z,96719.00
2023-02-18T07:56:44.130Z,96721.00
2023-02-18T07:57:44.176Z,96715.00
2023-02-18T07:58:43.168Z,96719.00
2023-02-18T07:59:43.191Z,96719.00
2023-02-18T08:00:44.198Z,96715.00
2023-02-18T08:01:45.145Z,96715.00
2023-02-18T08:02:44.226Z,96709.00
2023-02-18T08:03:43.229Z,96709.00
2023-02-18T08:04:43.262Z,96709.00
2023-02-18T08:05:44.279Z,96709.00
2023-02-18T08:06:43.269Z,96709.00
2023-02-18T08:07:44.279Z,96705.00
2023-02-18T08:08:43.291Z,96701.00
2023-02-18T08:09:44.307Z,96701.00
2023-02-18T08:10:43.310Z,96699.00
2023-02-18T08:11:44.308Z,96701.00
2023-02-18T08:12:44.319Z,96703.00
2023-02-18T08:13:46.888Z,96701.00
2023-02-18T08:14:44.349Z,96703.00
2023-02-18T08:15:44.313Z,96703.00
2023-02-18T08:16:44.357Z,96703.00
2023-02-18T08:17:44.318Z,96703.00
2023-02-18T08:18:43.324Z,96705.00
2023-02-18T08:19:44.288Z,96703.00
2023-02-18T08:20:43.280Z,96703.00
2023-02-18T08:21:43.275Z,96689.00
2023-02-18T08:22:44.295Z,96685.00
2023-02-18T08:23:43.285Z,96685.00
2023-02-18T08:24:44.298Z,96689.00
2023-02-18T08:25:44.247Z,96689.00
2023-02-18T08:26:59.135Z,96683.00
2023-02-18T08:27:44.246Z,96683.00
2023-02-18T08:28:44.229Z,96677.00
2023-02-18T08:29:44.256Z,96677.00
2023-02-18T08:30:44.441Z,96685.00
2023-02-18T08:31:44.944Z,96687.00
2023-02-18T08:32:44.201Z,96683.00
2023-02-18T08:33:44.203Z,96677.00
2023-02-18T08:34:44.206Z,96681.00
2023-02-18T08:35:44.186Z,96683.00
2023-02-18T08:36:43.188Z,96683.00
2023-02-18T08:37:52.717Z,96679.00
2023-02-18T08:38:44.180Z,96675.00
2023-02-18T08:39:44.165Z,96679.00
2023-02-18T08:40:44.143Z,96681.00
2023-02-18T08:41:44.148Z,96681.00
2023-02-18T08:42:44.140Z,96673.00
2023-02-18T08:43:43.195Z,96668.00
2023-02-18T08:44:44.128Z,96666.00
2023-02-18T08:45:44.251Z,96668.00
2023-02-18T08:46:44.194Z,96666.00
2023-02-18T08:48:18.912Z,96666.00
2023-02-18T08:48:44.087Z,96666.00
2023-02-18T08:49:44.087Z,96669.00
2023-02-18T08:50:44.083Z,96669.00
2023-02-18T08:51:44.075Z,96666.00
2023-02-18T08:52:44.061Z,96662.00
2023-02-18T08:53:43.098Z,96664.00
2023-02-18T08:54:44.105Z,96666.00
2023-02-18T08:55:44.038Z,96664.00
2023-02-18T08:56:44.021Z,96662.00
2023-02-18T08:57:43.024Z,96668.00
2023-02-18T08:58:44.031Z,96669.00
2023-02-18T08:59:44.041Z,96677.00
2023-02-18T09:00:44.007Z,96677.00
2023-02-18T09:01:43.063Z,96669.00
2023-02-18T09:02:43.986Z,96669.00
2023-02-18T09:03:42.977Z,96668.00
2023-02-18T09:04:42.977Z,96673.00
2023-02-18T09:05:43.971Z,96673.00
2023-02-18T09:06:43.972Z,96671.00
2023-02-18T09:07:42.958Z,96666.00
2023-02-18T09:08:43.958Z,96664.00
2023-02-18T09:09:43.944Z,96666.00
2023-02-18T09:10:46.254Z,96669.00
2023-02-18T09:11:42.927Z,96668.00
2023-02-18T09:12:43.919Z,96654.00
2023-02-18T09:13:42.912Z,96648.00
2023-02-18T09:14:42.905Z,96650.00
2023-02-18T09:15:43.945Z,96656.00
2023-02-18T09:16:43.900Z,96658.00
2023-02-18T09:17:42.921Z,96656.00
2023-02-18T09:18:42.881Z,96654.00
2023-02-18T09:19:42.868Z,96654.00
2023-02-18T09:20:43.877Z,96652.00
2023-02-18T09:21:43.875Z,96648.00
2023-02-18T09:22:43.870Z,96644.00
2023-02-18T09:23:43.841Z,96640.00
2023-02-18T09:24:43.842Z,96632.00
2023-02-18T09:25:42.846Z,96634.00
2023-02-18T09:26:43.840Z,96640.00
2023-02-18T09:27:43.819Z,96642.00
2023-02-18T09:28:42.844Z,96636.00
2023-02-18T09:29:42.842Z,96634.00
2023-02-18T09:30:43.807Z,96634.00
2023-02-18T09:31:42.946Z,96625.00
2023-02-18T09:32:42.777Z,96627.00
2023-02-18T09:33:44.245Z,96621.00
2023-02-18T09:34:42.875Z,96609.00
2023-02-18T09:35:43.895Z,96615.00
2023-02-18T09:36:43.892Z,96617.00
2023-02-18T09:37:43.871Z,96617.00
2023-02-18T09:38:43.888Z,96613.00
2023-02-18T09:39:43.891Z,96609.00
2023-02-18T09:40:42.880Z,96607.00
2023-02-18T09:41:43.930Z,96613.00
2023-02-18T09:42:43.928Z,96613.00
2023-02-18T09:43:44.028Z,96615.00
2023-02-18T09:44:43.014Z,96613.00
2023-02-18T09:45:43.083Z,96605.00
2023-02-18T09:46:44.134Z,96601.00
2023-02-18T09:47:44.186Z,96603.00
2023-02-18T09:48:44.247Z,96601.00
2023-02-18T09:49:43.346Z,96605.00
2023-02-18T09:50:43.350Z,96603.00
2023-02-18T09:51:43.404Z,96603.00
2023-02-18T09:52:44.469Z,96603.00
2023-02-18T09:53:43.500Z,96603.00
2023-02-18T09:54:43.559Z,96601.00
2023-02-18T09:55:44.596Z,96599.00
2023-02-18T09:56:43.650Z,96593.00
2023-02-18T09:57:44.703Z,96589.00
2023-02-18T09:58:44.745Z,96589.00
2023-02-18T09:59:44.792Z,96587.00
2023-02-18T10:00:45.815Z,96587.00
2023-02-18T10:01:44.940Z,96585.00
2023-02-18T10:02:43.908Z,96583.00
2023-02-18T10:03:43.961Z,96581.00
2023-02-18T10:04:44.002Z,96585.00
2023-02-18T10:05:45.069Z,96585.00
2023-02-18T10:06:45.096Z,96583.00
2023-02-18T10:07:45.118Z,96579.00
2023-02-18T10:08:44.133Z,96575.00
2023-02-18T10:09:44.169Z,96572.00
2023-02-18T10:10:45.205Z,96568.00
2023-02-18T10:11:45.249Z,96568.00
2023-02-18T10:12:45.352Z,96572.00
2023-02-18T10:13:45.311Z,96570.00
2023-02-18T10:14:45.342Z,96572.00
2023-02-18T10:15:44.467Z,96570.00
2023-02-18T10:16:45.449Z,96566.00
2023-02-18T10:17:46.028Z,96568.00
2023-02-18T10:18:44.504Z,96564.00
2023-02-18T10:19:44.537Z,96560.00
2023-02-18T10:20:45.582Z,96556.00
2023-02-18T10:21:45.665Z,96562.00
2023-02-18T10:22:45.667Z,96566.00
2023-02-18T10:23:45.706Z,96564.00
2023-02-18T10:24:45.737Z,96552.00
2023-02-18T10:25:45.794Z,96544.00
2023-02-18T10:26:45.829Z,96538.00
2023-02-18T10:27:44.948Z,96540.00
2023-02-18T10:28:45.901Z,96544.00
2023-02-18T10:29:45.939Z,96544.00
2023-02-18T10:30:46.005Z,96540.00
2023-02-18T10:31:46.151Z,96542.00
2023-02-18T10:32:46.073Z,96540.00
2023-02-18T10:33:46.079Z,96536.00
2023-02-18T10:34:46.110Z,96533.00
2023-02-18T10:35:46.138Z,96533.00
2023-02-18T10:36:45.169Z,96529.00
2023-02-18T10:37:46.226Z,96525.00
2023-02-18T10:38:45.293Z,96525.00
2023-02-18T10:39:45.281Z,96525.00
2023-02-18T10:40:46.266Z,96523.00
2023-02-18T10:41:45.293Z,96517.00
2023-02-18T10:42:46.311Z,96515.00
2023-02-18T10:43:46.329Z,96513.00
2023-02-18T10:44:46.352Z,96515.00
2023-02-18T10:45:45.352Z,96515.00
2023-02-18T10:46:46.412Z,96509.00
2023-02-18T10:47:46.379Z,96509.00
2023-02-18T10:48:46.403Z,96505.00
2023-02-18T10:49:45.414Z,96503.00
2023-02-18T10:50:45.445Z,96501.00
2023-02-18T10:51:45.446Z,96501.00
2023-02-18T10:52:46.467Z,96497.00
2023-02-18T10:53:46.507Z,96493.00
2023-02-18T10:54:46.499Z,96489.00
2023-02-18T10:55:45.506Z,96489.00
2023-02-18T10:56:48.112Z,96486.00
2023-02-18T10:57:46.511Z,96489.00
2023-02-18T10:58:46.523Z,96486.00
2023-02-18T10:59:46.501Z,96484.00
2023-02-18T11:00:46.491Z,96482.00
2023-02-18T11:01:46.534Z,96480.00
2023-02-18T11:02:46.526Z,96478.00
2023-02-18T11:03:45.480Z,96476.00
2023-02-18T11:04:45.548Z,96470.00
2023-02-18T11:05:46.458Z,96470.00
2023-02-18T11:06:46.468Z,96468.00
2023-02-18T11:07:45.442Z,96470.00
2023-02-18T11:08:46.439Z,96466.00
2023-02-18T11:09:46.944Z,96458.00
2023-02-18T11:10:46.432Z,96456.00
2023-02-18T11:11:50.696Z,96454.00
2023-02-18T11:12:46.450Z,96450.00
2023-02-18T11:13:46.413Z,96446.00
2023-02-18T11:14:46.410Z,96434.00
2023-02-18T11:15:46.481Z,96442.00
2023-02-18T11:16:45.390Z,96432.00
2023-02-18T11:17:46.391Z,96430.00
2023-02-18T11:18:46.386Z,96423.00
2023-02-18T11:19:45.373Z,96421.00
2023-02-18T11:20:46.378Z,96417.00
2023-02-18T11:21:46.362Z,96419.00
2023-02-18T11:22:45.351Z,96413.00
2023-02-18T11:23:45.338Z,96409.00
2023-02-18T11:24:46.335Z,96405.00
2023-02-18T11:25:46.343Z,96403.00
2023-02-18T11:26:46.417Z,96403.00
2023-02-18T11:27:46.360Z,96403.00
2023-02-18T11:28:45.315Z,96405.00
2023-02-18T11:29:46.305Z,96401.00
2023-02-18T11:30:46.282Z,96397.00
2023-02-18T11:31:45.430Z,96395.00
2023-02-18T11:32:46.271Z,96395.00
2023-02-18T11:33:46.380Z,96391.00
2023-02-18T11:34:46.265Z,96387.00
2023-02-18T11:35:46.254Z,96391.00
2023-02-18T11:36:46.254Z,96383.00
2023-02-18T11:37:45.246Z,96378.00
2023-02-18T11:38:46.540Z,96374.00
2023-02-18T11:39:46.238Z,96366.00
2023-02-18T11:40:46.210Z,96366.00
2023-02-18T11:41:46.235Z,96362.00
2023-02-18T11:42:46.212Z,96362.00
2023-02-18T11:43:46.190Z,96360.00
2023-02-18T11:44:45.189Z,96352.00